^^
Saratoga-Weather Station Historical Data
Daily Summary for September 29, 2021 Units:  Both    English   Metric
Daily Weekly Monthly Yearly Custom
  High: Low: Average:
Temperature: 37.9 °F /  3.3 °C 32.5 °F /  0.3 °C 35.6 °F /  2 °C
Dew Point: 34.7 °F /  1.5 °C 30 °F /  -1.1 °C 32.7 °F /  0.4 °C
Humidity: 93% 85% 89%
Wind Speed: 15mph /  24.1km/h - 4.7mph /  7.5km/h
Wind Gust: 16mph /  25.7km/h - -
Wind- - West
Pressure: 30 in /  1016.6 hPa 29.6 in /  1002.0 hPa -
Precipitation: 0 in /  0.0 mm    
Historical Graphs
 
 
Tabular Data for September 29, 2021
Time Temperature Dew Point Pressure Wind Wind Speed Wind Gust Humidity Rainfall Rate (Hourly) solar
00:01 36.3 °F /  2.4 °C 34 °F /  1.1 °C 29.6in /  1002.0hPa WNW 2mph /  3.2km/h 3mph /  4.8km/h 91% 0in /  0.0mm 0 W/m2
00:06 36.3 °F /  2.4 °C 34 °F /  1.1 °C 29.6in /  1002.0hPa WNW 2mph /  3.2km/h 2mph /  3.2km/h 91% 0in /  0.0mm 0 W/m2
00:11 36.3 °F /  2.4 °C 34 °F /  1.1 °C 29.6in /  1002.0hPa NW 2mph /  3.2km/h 9mph /  14.5km/h 91% 0in /  0.0mm 0 W/m2
00:16 36.3 °F /  2.4 °C 34 °F /  1.1 °C 29.6in /  1002.0hPa NW 2mph /  3.2km/h 3mph /  4.8km/h 91% 0in /  0.0mm 0 W/m2
00:21 36.3 °F /  2.4 °C 34 °F /  1.1 °C 29.6in /  1002.0hPa WNW 2mph /  3.2km/h 6mph /  9.7km/h 91% 0in /  0.0mm 0 W/m2
00:26 36.3 °F /  2.4 °C 34 °F /  1.1 °C 29.6in /  1002.4hPa WNW 0.9mph /  1.4km/h 4mph /  6.4km/h 91% 0in /  0.0mm 0 W/m2
00:31 36.3 °F /  2.4 °C 34 °F /  1.1 °C 29.6in /  1002.4hPa West 2.9mph /  4.7km/h 7mph /  11.3km/h 91% 0in /  0.0mm 0 W/m2
00:36 36.3 °F /  2.4 °C 34 °F /  1.1 °C 29.6in /  1002.4hPa WNW 2.9mph /  4.7km/h 6mph /  9.7km/h 91% 0in /  0.0mm 0 W/m2
00:41 36.3 °F /  2.4 °C 34 °F /  1.1 °C 29.6in /  1002.4hPa West 2.9mph /  4.7km/h 6mph /  9.7km/h 91% 0in /  0.0mm 0 W/m2
00:46 36.3 °F /  2.4 °C 34 °F /  1.1 °C 29.6in /  1002.4hPa WNW 2mph /  3.2km/h 5mph /  8km/h 91% 0in /  0.0mm 0 W/m2
00:51 36.1 °F /  2.3 °C 33.8 °F /  1 °C 29.6in /  1002.4hPa West 2.9mph /  4.7km/h 6mph /  9.7km/h 91% 0in /  0.0mm 0 W/m2
00:56 36.1 °F /  2.3 °C 33.8 °F /  1 °C 29.6in /  1002.4hPa West 2.9mph /  4.7km/h 4mph /  6.4km/h 91% 0in /  0.0mm 0 W/m2
01:01 36.1 °F /  2.3 °C 33.8 °F /  1 °C 29.6in /  1002.4hPa NW 0.9mph /  1.4km/h 6mph /  9.7km/h 91% 0in /  0.0mm 0 W/m2
01:11 36 °F /  2.2 °C 33.6 °F /  0.9 °C 29.6in /  1002.4hPa WNW 0.9mph /  1.4km/h 1mph /  1.6km/h 91% 0in /  0.0mm 0 W/m2
01:16 36 °F /  2.2 °C 33.6 °F /  0.9 °C 29.6in /  1002.7hPa WNW 0.9mph /  1.4km/h 2mph /  3.2km/h 91% 0in /  0.0mm 0 W/m2
01:21 35.8 °F /  2.1 °C 33.4 °F /  0.8 °C 29.6in /  1002.7hPa WNW 2mph /  3.2km/h 3mph /  4.8km/h 91% 0in /  0.0mm 0 W/m2
01:26 35.8 °F /  2.1 °C 33.6 °F /  0.9 °C 29.6in /  1002.7hPa WNW 2mph /  3.2km/h 2mph /  3.2km/h 92% 0in /  0.0mm 0 W/m2
01:31 35.8 °F /  2.1 °C 33.6 °F /  0.9 °C 29.6in /  1002.7hPa West 2mph /  3.2km/h 2mph /  3.2km/h 92% 0in /  0.0mm 0 W/m2
01:36 35.6 °F /  2 °C 33.4 °F /  0.8 °C 29.6in /  1002.7hPa WNW 2.9mph /  4.7km/h 4mph /  6.4km/h 92% 0in /  0.0mm 0 W/m2
01:41 35.8 °F /  2.1 °C 33.6 °F /  0.9 °C 29.6in /  1002.7hPa WSW 2mph /  3.2km/h 4mph /  6.4km/h 92% 0in /  0.0mm 0 W/m2
01:46 35.8 °F /  2.1 °C 33.4 °F /  0.8 °C 29.6in /  1002.7hPa West 2mph /  3.2km/h 4mph /  6.4km/h 91% 0in /  0.0mm 0 W/m2
01:51 35.6 °F /  2 °C 33.3 °F /  0.7 °C 29.6in /  1003.0hPa WNW 2.9mph /  4.7km/h 3mph /  4.8km/h 91% 0in /  0.0mm 0 W/m2
01:56 35.4 °F /  1.9 °C 33.1 °F /  0.6 °C 29.6in /  1003.0hPa WNW 0.9mph /  1.4km/h 2mph /  3.2km/h 91% 0in /  0.0mm 0 W/m2
02:01 35.4 °F /  1.9 °C 33.1 °F /  0.6 °C 29.6in /  1003.0hPa Calm     91% 0in /  0.0mm 0 W/m2
02:06 35.2 °F /  1.8 °C 32.9 °F /  0.5 °C 29.6in /  1003.4hPa Calm     91% 0in /  0.0mm 0 W/m2
02:12 35.1 °F /  1.7 °C 32.7 °F /  0.4 °C 29.6in /  1003.4hPa Calm     91% 0in /  0.0mm 0 W/m2
02:17 34.5 °F /  1.4 °C 32.2 °F /  0.1 °C 29.6in /  1003.4hPa Calm     91% 0in /  0.0mm 0 W/m2
02:22 34.3 °F /  1.3 °C 32 °F /  0 °C 29.6in /  1003.4hPa Calm     91% 0in /  0.0mm 0 W/m2
02:32 33.6 °F /  0.9 °C 31.5 °F /  -0.3 °C 29.6in /  1003.4hPa Calm   2mph /  3.2km/h 92% 0in /  0.0mm 0 W/m2
02:37 33.6 °F /  0.9 °C 31.5 °F /  -0.3 °C 29.6in /  1003.7hPa WNW 0.9mph /  1.4km/h 3mph /  4.8km/h 92% 0in /  0.0mm 0 W/m2
02:42 33.4 °F /  0.8 °C 31.3 °F /  -0.4 °C 29.6in /  1003.7hPa Calm   2mph /  3.2km/h 92% 0in /  0.0mm 0 W/m2
02:52 33.1 °F /  0.6 °C 31.3 °F /  -0.4 °C 29.7in /  1004.1hPa WSW 0.9mph /  1.4km/h 2mph /  3.2km/h 93% 0in /  0.0mm 0 W/m2
02:57 32.9 °F /  0.5 °C 31.1 °F /  -0.5 °C 29.7in /  1004.1hPa WSW 2mph /  3.2km/h 3mph /  4.8km/h 93% 0in /  0.0mm 0 W/m2
03:02 32.9 °F /  0.5 °C 31.1 °F /  -0.5 °C 29.7in /  1004.1hPa WNW 2.9mph /  4.7km/h 3mph /  4.8km/h 93% 0in /  0.0mm 0 W/m2
03:07 33.1 °F /  0.6 °C 31.3 °F /  -0.4 °C 29.7in /  1004.1hPa West 0.9mph /  1.4km/h 3mph /  4.8km/h 93% 0in /  0.0mm 0 W/m2
03:12 33.1 °F /  0.6 °C 31.3 °F /  -0.4 °C 29.7in /  1004.1hPa Calm   2mph /  3.2km/h 93% 0in /  0.0mm 0 W/m2
03:17 32.9 °F /  0.5 °C 31.1 °F /  -0.5 °C 29.7in /  1004.1hPa West 0.9mph /  1.4km/h 2mph /  3.2km/h 93% 0in /  0.0mm 0 W/m2
03:22 32.9 °F /  0.5 °C 31.1 °F /  -0.5 °C 29.7in /  1004.1hPa West 2mph /  3.2km/h 4mph /  6.4km/h 93% 0in /  0.0mm 0 W/m2
03:27 32.9 °F /  0.5 °C 31.1 °F /  -0.5 °C 29.7in /  1004.1hPa West 0.9mph /  1.4km/h 5mph /  8km/h 93% 0in /  0.0mm 0 W/m2
03:32 33.1 °F /  0.6 °C 31.3 °F /  -0.4 °C 29.7in /  1004.4hPa West 0.9mph /  1.4km/h 2mph /  3.2km/h 93% 0in /  0.0mm 0 W/m2
03:37 32.9 °F /  0.5 °C 31.1 °F /  -0.5 °C 29.7in /  1004.4hPa West 2.9mph /  4.7km/h 6mph /  9.7km/h 93% 0in /  0.0mm 0 W/m2
03:42 33.1 °F /  0.6 °C 31.3 °F /  -0.4 °C 29.7in /  1004.4hPa West 2mph /  3.2km/h 3mph /  4.8km/h 93% 0in /  0.0mm 0 W/m2
03:47 32.9 °F /  0.5 °C 30.9 °F /  -0.6 °C 29.7in /  1004.4hPa West 2.9mph /  4.7km/h 3mph /  4.8km/h 92% 0in /  0.0mm 0 W/m2
03:52 32.9 °F /  0.5 °C 30.9 °F /  -0.6 °C 29.7in /  1004.4hPa NW 2.9mph /  4.7km/h 4mph /  6.4km/h 92% 0in /  0.0mm 0 W/m2
03:57 32.9 °F /  0.5 °C 30.9 °F /  -0.6 °C 29.7in /  1004.4hPa WNW 2mph /  3.2km/h 4mph /  6.4km/h 92% 0in /  0.0mm 0 W/m2
04:02 32.9 °F /  0.5 °C 30.9 °F /  -0.6 °C 29.7in /  1004.7hPa West 2.9mph /  4.7km/h 6mph /  9.7km/h 92% 0in /  0.0mm 0 W/m2
04:07 33.1 °F /  0.6 °C 31.1 °F /  -0.5 °C 29.7in /  1004.7hPa West 4mph /  6.4km/h 7mph /  11.3km/h 92% 0in /  0.0mm 0 W/m2
04:17 33.3 °F /  0.7 °C 31.1 °F /  -0.5 °C 29.7in /  1004.7hPa West 2.9mph /  4.7km/h 7mph /  11.3km/h 92% 0in /  0.0mm 0 W/m2
04:22 33.3 °F /  0.7 °C 31.1 °F /  -0.5 °C 29.7in /  1004.7hPa West 2.9mph /  4.7km/h 6mph /  9.7km/h 92% 0in /  0.0mm 0 W/m2
04:27 33.4 °F /  0.8 °C 31.1 °F /  -0.5 °C 29.7in /  1004.7hPa WNW 2mph /  3.2km/h 6mph /  9.7km/h 91% 0in /  0.0mm 0 W/m2
04:32 33.4 °F /  0.8 °C 31.1 °F /  -0.5 °C 29.7in /  1004.7hPa WNW 2.9mph /  4.7km/h 8mph /  12.9km/h 91% 0in /  0.0mm 0 W/m2
04:37 33.4 °F /  0.8 °C 31.1 °F /  -0.5 °C 29.7in /  1004.7hPa West 2.9mph /  4.7km/h 4mph /  6.4km/h 91% 0in /  0.0mm 0 W/m2
04:42 33.4 °F /  0.8 °C 31.1 °F /  -0.5 °C 29.7in /  1004.7hPa WSW 4.9mph /  7.9km/h 8mph /  12.9km/h 91% 0in /  0.0mm 0 W/m2
04:47 33.4 °F /  0.8 °C 31.1 °F /  -0.5 °C 29.7in /  1004.7hPa WSW 6.9mph /  11.1km/h 9mph /  14.5km/h 91% 0in /  0.0mm 0 W/m2
04:52 33.4 °F /  0.8 °C 31.1 °F /  -0.5 °C 29.7in /  1004.7hPa WNW 6mph /  9.7km/h 6mph /  9.7km/h 91% 0in /  0.0mm 0 W/m2
04:57 33.4 °F /  0.8 °C 30.7 °F /  -0.7 °C 29.7in /  1005.1hPa WNW 4.9mph /  7.9km/h 9mph /  14.5km/h 90% 0in /  0.0mm 0 W/m2
05:02 33.4 °F /  0.8 °C 30.7 °F /  -0.7 °C 29.7in /  1005.1hPa West 6mph /  9.7km/h 8mph /  12.9km/h 90% 0in /  0.0mm 0 W/m2
05:07 33.4 °F /  0.8 °C 30.7 °F /  -0.7 °C 29.7in /  1005.1hPa West 2.9mph /  4.7km/h 8mph /  12.9km/h 90% 0in /  0.0mm 0 W/m2
05:12 33.4 °F /  0.8 °C 30.7 °F /  -0.7 °C 29.7in /  1005.1hPa West 6mph /  9.7km/h 7mph /  11.3km/h 90% 0in /  0.0mm 0 W/m2
05:17 33.4 °F /  0.8 °C 30.7 °F /  -0.7 °C 29.7in /  1005.1hPa WSW 4mph /  6.4km/h 12mph /  19.3km/h 90% 0in /  0.0mm 0 W/m2
05:22 33.3 °F /  0.7 °C 30.9 °F /  -0.6 °C 29.7in /  1005.1hPa West 8.1mph /  13km/h 8mph /  12.9km/h 91% 0in /  0.0mm 0 W/m2
05:27 33.3 °F /  0.7 °C 30.9 °F /  -0.6 °C 29.7in /  1005.4hPa WNW 8.1mph /  13km/h 12mph /  19.3km/h 91% 0in /  0.0mm 0 W/m2
05:32 33.3 °F /  0.7 °C 30.6 °F /  -0.8 °C 29.7in /  1005.4hPa West 2mph /  3.2km/h 6mph /  9.7km/h 90% 0in /  0.0mm 0 W/m2
05:37 33.3 °F /  0.7 °C 30.9 °F /  -0.6 °C 29.7in /  1005.4hPa West 2.9mph /  4.7km/h 4mph /  6.4km/h 91% 0in /  0.0mm 0 W/m2
05:47 33.3 °F /  0.7 °C 30.9 °F /  -0.6 °C 29.7in /  1005.8hPa WNW 2.9mph /  4.7km/h 6mph /  9.7km/h 91% 0in /  0.0mm 0 W/m2
05:52 33.1 °F /  0.6 °C 30.7 °F /  -0.7 °C 29.7in /  1005.8hPa West 2.9mph /  4.7km/h 9mph /  14.5km/h 91% 0in /  0.0mm 0 W/m2
05:57 33.1 °F /  0.6 °C 30.4 °F /  -0.9 °C 29.7in /  1005.8hPa WNW 6.9mph /  11.1km/h 8mph /  12.9km/h 90% 0in /  0.0mm 0 W/m2
06:02 33.1 °F /  0.6 °C 30.4 °F /  -0.9 °C 29.7in /  1005.8hPa WNW 2mph /  3.2km/h 4mph /  6.4km/h 90% 0in /  0.0mm 0 W/m2
06:07 33.1 °F /  0.6 °C 30.4 °F /  -0.9 °C 29.7in /  1005.8hPa West 2.9mph /  4.7km/h 9mph /  14.5km/h 90% 0in /  0.0mm 0 W/m2
06:12 33.1 °F /  0.6 °C 30.4 °F /  -0.9 °C 29.7in /  1005.8hPa West 4mph /  6.4km/h 7mph /  11.3km/h 90% 0in /  0.0mm 0 W/m2
06:17 33.3 °F /  0.7 °C 30.6 °F /  -0.8 °C 29.7in /  1006.1hPa West 2.9mph /  4.7km/h 8mph /  12.9km/h 90% 0in /  0.0mm 0 W/m2
06:22 33.3 °F /  0.7 °C 30.6 °F /  -0.8 °C 29.7in /  1006.1hPa WNW 4.9mph /  7.9km/h 7mph /  11.3km/h 90% 0in /  0.0mm 0 W/m2
06:27 33.3 °F /  0.7 °C 30.6 °F /  -0.8 °C 29.7in /  1006.1hPa West 6mph /  9.7km/h 9mph /  14.5km/h 90% 0in /  0.0mm 0 W/m2
06:32 33.3 °F /  0.7 °C 30.6 °F /  -0.8 °C 29.7in /  1006.1hPa WNW 2.9mph /  4.7km/h 8mph /  12.9km/h 90% 0in /  0.0mm 0 W/m2
06:37 33.3 °F /  0.7 °C 30.6 °F /  -0.8 °C 29.7in /  1006.1hPa WNW 4mph /  6.4km/h 7mph /  11.3km/h 90% 0in /  0.0mm 0 W/m2
06:42 33.3 °F /  0.7 °C 30.6 °F /  -0.8 °C 29.7in /  1006.4hPa West 6mph /  9.7km/h 10mph /  16.1km/h 90% 0in /  0.0mm 0 W/m2
06:47 33.1 °F /  0.6 °C 30.4 °F /  -0.9 °C 29.7in /  1006.4hPa WNW 6mph /  9.7km/h 7mph /  11.3km/h 90% 0in /  0.0mm 0 W/m2
06:52 33.1 °F /  0.6 °C 30.4 °F /  -0.9 °C 29.7in /  1006.4hPa West 6mph /  9.7km/h 9mph /  14.5km/h 90% 0in /  0.0mm 0 W/m2
06:57 33.3 °F /  0.7 °C 30.6 °F /  -0.8 °C 29.7in /  1006.8hPa WNW 6mph /  9.7km/h 8mph /  12.9km/h 90% 0in /  0.0mm 0 W/m2
07:02 33.3 °F /  0.7 °C 30.6 °F /  -0.8 °C 29.7in /  1006.8hPa West 2.9mph /  4.7km/h 6mph /  9.7km/h 90% 0in /  0.0mm 0 W/m2
07:07 33.1 °F /  0.6 °C 30.4 °F /  -0.9 °C 29.7in /  1006.8hPa WNW 2.9mph /  4.7km/h 7mph /  11.3km/h 90% 0in /  0.0mm 0 W/m2
07:12 33.1 °F /  0.6 °C 30.2 °F /  -1 °C 29.7in /  1007.1hPa NW 0.9mph /  1.4km/h 4mph /  6.4km/h 89% 0in /  0.0mm 0 W/m2
07:17 33.1 °F /  0.6 °C 30.2 °F /  -1 °C 29.7in /  1007.1hPa Calm   2mph /  3.2km/h 89% 0in /  0.0mm 0 W/m2
07:22 32.9 °F /  0.5 °C 30 °F /  -1.1 °C 29.8in /  1007.5hPa NNW 2mph /  3.2km/h 4mph /  6.4km/h 89% 0in /  0.0mm 0 W/m2
07:27 32.7 °F /  0.4 °C 30.2 °F /  -1 °C 29.8in /  1007.5hPa NW 2mph /  3.2km/h 3mph /  4.8km/h 90% 0in /  0.0mm 0 W/m2
07:32 32.5 °F /  0.3 °C 30 °F /  -1.1 °C 29.8in /  1007.5hPa WNW 2mph /  3.2km/h 2mph /  3.2km/h 90% 0in /  0.0mm 0 W/m2
07:37 32.5 °F /  0.3 °C 30 °F /  -1.1 °C 29.8in /  1007.5hPa WSW 4mph /  6.4km/h 4mph /  6.4km/h 90% 0in /  0.0mm 0 W/m2
07:42 32.5 °F /  0.3 °C 30 °F /  -1.1 °C 29.8in /  1007.5hPa WNW 2mph /  3.2km/h 3mph /  4.8km/h 90% 0in /  0.0mm 0 W/m2
07:47 32.7 °F /  0.4 °C 30.4 °F /  -0.9 °C 29.8in /  1007.8hPa West 4mph /  6.4km/h 6mph /  9.7km/h 91% 0in /  0.0mm 0 W/m2
07:52 33.1 °F /  0.6 °C 30.4 °F /  -0.9 °C 29.8in /  1007.8hPa WNW 2mph /  3.2km/h 5mph /  8km/h 90% 0in /  0.0mm 0 W/m2
07:57 33.3 °F /  0.7 °C 30.6 °F /  -0.8 °C 29.8in /  1007.8hPa WNW 4mph /  6.4km/h 7mph /  11.3km/h 90% 0in /  0.0mm 0 W/m2
08:07 33.4 °F /  0.8 °C 30.6 °F /  -0.8 °C 29.8in /  1008.1hPa WNW 4mph /  6.4km/h 9mph /  14.5km/h 89% 0in /  0.0mm 0 W/m2
08:12 33.4 °F /  0.8 °C 30.6 °F /  -0.8 °C 29.8in /  1008.1hPa WNW 4mph /  6.4km/h 7mph /  11.3km/h 89% 0in /  0.0mm 5 W/m2
08:17 33.4 °F /  0.8 °C 30.6 °F /  -0.8 °C 29.8in /  1008.1hPa WNW 2mph /  3.2km/h 6mph /  9.7km/h 89% 0in /  0.0mm 7 W/m2
08:22 33.4 °F /  0.8 °C 30.2 °F /  -1 °C 29.8in /  1008.5hPa West 8.1mph /  13km/h 11mph /  17.7km/h 88% 0in /  0.0mm 9 W/m2
08:27 33.4 °F /  0.8 °C 30.2 °F /  -1 °C 29.8in /  1008.5hPa West 2mph /  3.2km/h 8mph /  12.9km/h 88% 0in /  0.0mm 11 W/m2
08:32 33.6 °F /  0.9 °C 30.4 °F /  -0.9 °C 29.8in /  1008.5hPa WNW 6mph /  9.7km/h 11mph /  17.7km/h 88% 0in /  0.0mm 12 W/m2
08:37 33.6 °F /  0.9 °C 30.4 °F /  -0.9 °C 29.8in /  1008.5hPa WNW 4.9mph /  7.9km/h 7mph /  11.3km/h 88% 0in /  0.0mm 14 W/m2
08:42 33.6 °F /  0.9 °C 30.4 °F /  -0.9 °C 29.8in /  1008.5hPa West 2mph /  3.2km/h 5mph /  8km/h 88% 0in /  0.0mm 14 W/m2
08:47 33.6 °F /  0.9 °C 30.4 °F /  -0.9 °C 29.8in /  1008.8hPa West 6mph /  9.7km/h 6mph /  9.7km/h 88% 0in /  0.0mm 14 W/m2
08:53 33.6 °F /  0.9 °C 30.4 °F /  -0.9 °C 29.8in /  1008.8hPa WNW 2.9mph /  4.7km/h 8mph /  12.9km/h 88% 0in /  0.0mm 18 W/m2
08:58 33.6 °F /  0.9 °C 30.7 °F /  -0.7 °C 29.8in /  1008.8hPa NW 2mph /  3.2km/h 7mph /  11.3km/h 89% 0in /  0.0mm 21 W/m2
09:03 33.6 °F /  0.9 °C 30.7 °F /  -0.7 °C 29.8in /  1008.8hPa SW 4.9mph /  7.9km/h 6mph /  9.7km/h 89% 0in /  0.0mm 25 W/m2
09:08 33.6 °F /  0.9 °C 30.7 °F /  -0.7 °C 29.8in /  1009.1hPa West 2mph /  3.2km/h 7mph /  11.3km/h 89% 0in /  0.0mm 23 W/m2
09:13 33.4 °F /  0.8 °C 30.6 °F /  -0.8 °C 29.8in /  1009.1hPa WNW 4mph /  6.4km/h 7mph /  11.3km/h 89% 0in /  0.0mm 21 W/m2
09:18 33.4 °F /  0.8 °C 30.7 °F /  -0.7 °C 29.8in /  1009.1hPa WSW 0.9mph /  1.4km/h 7mph /  11.3km/h 90% 0in /  0.0mm 25 W/m2
09:23 33.4 °F /  0.8 °C 30.7 °F /  -0.7 °C 29.8in /  1008.8hPa WSW 2mph /  3.2km/h 8mph /  12.9km/h 90% 0in /  0.0mm 25 W/m2
09:28 33.4 °F /  0.8 °C 30.7 °F /  -0.7 °C 29.8in /  1009.1hPa SW 4.9mph /  7.9km/h 7mph /  11.3km/h 90% 0in /  0.0mm 26 W/m2
09:33 33.6 °F /  0.9 °C 30.9 °F /  -0.6 °C 29.8in /  1009.1hPa WSW 6mph /  9.7km/h 11mph /  17.7km/h 90% 0in /  0.0mm 26 W/m2
09:38 33.6 °F /  0.9 °C 30.9 °F /  -0.6 °C 29.8in /  1009.1hPa NW 2mph /  3.2km/h 6mph /  9.7km/h 90% 0in /  0.0mm 28 W/m2
09:43 33.6 °F /  0.9 °C 30.9 °F /  -0.6 °C 29.8in /  1009.1hPa West 2mph /  3.2km/h 8mph /  12.9km/h 90% 0in /  0.0mm 33 W/m2
09:48 33.6 °F /  0.9 °C 30.9 °F /  -0.6 °C 29.8in /  1009.5hPa West 2mph /  3.2km/h 3mph /  4.8km/h 90% 0in /  0.0mm 42 W/m2
09:53 33.8 °F /  1 °C 31.1 °F /  -0.5 °C 29.8in /  1009.5hPa West 0.9mph /  1.4km/h 8mph /  12.9km/h 90% 0in /  0.0mm 47 W/m2
09:58 34 °F /  1.1 °C 31.3 °F /  -0.4 °C 29.8in /  1009.5hPa West 4mph /  6.4km/h 8mph /  12.9km/h 90% 0in /  0.0mm 53 W/m2
10:03 34.2 °F /  1.2 °C 31.5 °F /  -0.3 °C 29.8in /  1009.5hPa West 8.1mph /  13km/h 8mph /  12.9km/h 90% 0in /  0.0mm 74 W/m2
10:08 34.2 °F /  1.2 °C 31.5 °F /  -0.3 °C 29.8in /  1009.5hPa WNW 2mph /  3.2km/h 7mph /  11.3km/h 90% 0in /  0.0mm 74 W/m2
10:13 34.3 °F /  1.3 °C 31.6 °F /  -0.2 °C 29.8in /  1009.5hPa WNW 8.9mph /  14.3km/h 10mph /  16.1km/h 90% 0in /  0.0mm 44 W/m2
10:18 34.3 °F /  1.3 °C 31.6 °F /  -0.2 °C 29.8in /  1009.5hPa NW 0.9mph /  1.4km/h 7mph /  11.3km/h 90% 0in /  0.0mm 32 W/m2
10:23 34.3 °F /  1.3 °C 31.6 °F /  -0.2 °C 29.8in /  1009.8hPa WNW 2.9mph /  4.7km/h 4mph /  6.4km/h 90% 0in /  0.0mm 32 W/m2
10:28 34.3 °F /  1.3 °C 31.6 °F /  -0.2 °C 29.8in /  1009.8hPa WNW 2.9mph /  4.7km/h 6mph /  9.7km/h 90% 0in /  0.0mm 37 W/m2
10:33 34.3 °F /  1.3 °C 31.6 °F /  -0.2 °C 29.8in /  1009.8hPa West 2mph /  3.2km/h 6mph /  9.7km/h 90% 0in /  0.0mm 33 W/m2
10:38 34.3 °F /  1.3 °C 31.6 °F /  -0.2 °C 29.8in /  1009.8hPa WSW 4mph /  6.4km/h 8mph /  12.9km/h 90% 0in /  0.0mm 42 W/m2
10:43 34.5 °F /  1.4 °C 31.8 °F /  -0.1 °C 29.8in /  1009.8hPa West 6.9mph /  11.1km/h 9mph /  14.5km/h 90% 0in /  0.0mm 42 W/m2
10:48 34.5 °F /  1.4 °C 31.8 °F /  -0.1 °C 29.8in /  1009.8hPa West 6mph /  9.7km/h 12mph /  19.3km/h 90% 0in /  0.0mm 35 W/m2
10:53 34.9 °F /  1.6 °C 32.2 °F /  0.1 °C 29.8in /  1010.2hPa WNW 8.1mph /  13km/h 9mph /  14.5km/h 90% 0in /  0.0mm 37 W/m2
10:58 35.1 °F /  1.7 °C 32.4 °F /  0.2 °C 29.8in /  1009.8hPa West 8.9mph /  14.3km/h 12mph /  19.3km/h 90% 0in /  0.0mm 37 W/m2
11:03 35.2 °F /  1.8 °C 32.4 °F /  0.2 °C 29.8in /  1010.2hPa WNW 4mph /  6.4km/h 8mph /  12.9km/h 89% 0in /  0.0mm 39 W/m2
11:08 35.4 °F /  1.9 °C 32.5 °F /  0.3 °C 29.8in /  1010.2hPa West 6.9mph /  11.1km/h 11mph /  17.7km/h 89% 0in /  0.0mm 37 W/m2
11:13 35.4 °F /  1.9 °C 32.5 °F /  0.3 °C 29.8in /  1010.2hPa West 2.9mph /  4.7km/h 8mph /  12.9km/h 89% 0in /  0.0mm 35 W/m2
11:18 35.4 °F /  1.9 °C 32.2 °F /  0.1 °C 29.8in /  1010.2hPa WSW 4mph /  6.4km/h 14mph /  22.5km/h 88% 0in /  0.0mm 39 W/m2
11:23 35.6 °F /  2 °C 32.4 °F /  0.2 °C 29.8in /  1010.2hPa West 6mph /  9.7km/h 12mph /  19.3km/h 88% 0in /  0.0mm 42 W/m2
11:28 35.8 °F /  2.1 °C 32.5 °F /  0.3 °C 29.8in /  1010.2hPa WNW 4mph /  6.4km/h 11mph /  17.7km/h 88% 0in /  0.0mm 63 W/m2
11:33 35.8 °F /  2.1 °C 32.5 °F /  0.3 °C 29.8in /  1010.2hPa NW 4mph /  6.4km/h 12mph /  19.3km/h 88% 0in /  0.0mm 74 W/m2
11:38 36 °F /  2.2 °C 32.7 °F /  0.4 °C 29.8in /  1010.2hPa NW 4.9mph /  7.9km/h 11mph /  17.7km/h 88% 0in /  0.0mm 105 W/m2
11:43 36.1 °F /  2.3 °C 32.9 °F /  0.5 °C 29.8in /  1010.2hPa West 4mph /  6.4km/h 8mph /  12.9km/h 88% 0in /  0.0mm 139 W/m2
11:48 36.1 °F /  2.3 °C 32.7 °F /  0.4 °C 29.8in /  1010.5hPa West 6mph /  9.7km/h 10mph /  16.1km/h 87% 0in /  0.0mm 146 W/m2
11:53 36.3 °F /  2.4 °C 32.9 °F /  0.5 °C 29.8in /  1010.5hPa NW 8.1mph /  13km/h 10mph /  16.1km/h 87% 0in /  0.0mm 95 W/m2
11:58 36.3 °F /  2.4 °C 32.9 °F /  0.5 °C 29.8in /  1010.5hPa West 4mph /  6.4km/h 12mph /  19.3km/h 87% 0in /  0.0mm 113 W/m2
12:03 36.3 °F /  2.4 °C 32.9 °F /  0.5 °C 29.8in /  1010.5hPa WNW 6.9mph /  11.1km/h 13mph /  20.9km/h 87% 0in /  0.0mm 141 W/m2
12:08 36.5 °F /  2.5 °C 32.7 °F /  0.4 °C 29.8in /  1010.5hPa NW 4mph /  6.4km/h 13mph /  20.9km/h 86% 0in /  0.0mm 148 W/m2
12:18 36.7 °F /  2.6 °C 33.3 °F /  0.7 °C 29.8in /  1010.5hPa WNW 4.9mph /  7.9km/h 11mph /  17.7km/h 87% 0in /  0.0mm 146 W/m2
12:23 36.9 °F /  2.7 °C 33.4 °F /  0.8 °C 29.8in /  1010.5hPa West 6.9mph /  11.1km/h 12mph /  19.3km/h 87% 0in /  0.0mm 142 W/m2
12:28 36.9 °F /  2.7 °C 33.1 °F /  0.6 °C 29.8in /  1010.5hPa WNW 8.9mph /  14.3km/h 12mph /  19.3km/h 86% 0in /  0.0mm 100 W/m2
12:33 36.7 °F /  2.6 °C 32.9 °F /  0.5 °C 29.8in /  1010.5hPa WNW 6.9mph /  11.1km/h 11mph /  17.7km/h 86% 0in /  0.0mm 88 W/m2
12:38 36.7 °F /  2.6 °C 32.9 °F /  0.5 °C 29.8in /  1010.5hPa West 4mph /  6.4km/h 14mph /  22.5km/h 86% 0in /  0.0mm 146 W/m2
12:43 36.7 °F /  2.6 °C 33.3 °F /  0.7 °C 29.8in /  1010.5hPa WNW 4mph /  6.4km/h 11mph /  17.7km/h 87% 0in /  0.0mm 134 W/m2
12:48 36.9 °F /  2.7 °C 33.1 °F /  0.6 °C 29.8in /  1010.5hPa West 8.1mph /  13km/h 14mph /  22.5km/h 86% 0in /  0.0mm 169 W/m2
12:53 37.2 °F /  2.9 °C 33.4 °F /  0.8 °C 29.8in /  1010.5hPa WSW 12.1mph /  19.5km/h 12mph /  19.3km/h 86% 0in /  0.0mm 162 W/m2
12:58 37.2 °F /  2.9 °C 33.1 °F /  0.6 °C 29.8in /  1010.5hPa West 8.1mph /  13km/h 13mph /  20.9km/h 85% 0in /  0.0mm 100 W/m2
13:03 37.2 °F /  2.9 °C 33.1 °F /  0.6 °C 29.8in /  1010.5hPa West 2mph /  3.2km/h 9mph /  14.5km/h 85% 0in /  0.0mm 83 W/m2
13:08 37 °F /  2.8 °C 32.9 °F /  0.5 °C 29.9in /  1010.8hPa WNW 8.1mph /  13km/h 10mph /  16.1km/h 85% 0in /  0.0mm 97 W/m2
13:13 37 °F /  2.8 °C 33.3 °F /  0.7 °C 29.9in /  1010.8hPa West 10.1mph /  16.3km/h 11mph /  17.7km/h 86% 0in /  0.0mm 93 W/m2
13:18 37 °F /  2.8 °C 33.3 °F /  0.7 °C 29.9in /  1010.8hPa NW 2.9mph /  4.7km/h 11mph /  17.7km/h 86% 0in /  0.0mm 88 W/m2
13:23 37 °F /  2.8 °C 33.3 °F /  0.7 °C 29.9in /  1010.8hPa NW 8.1mph /  13km/h 12mph /  19.3km/h 86% 0in /  0.0mm 134 W/m2
13:28 37.2 °F /  2.9 °C 33.4 °F /  0.8 °C 29.9in /  1010.8hPa WSW 4.9mph /  7.9km/h 11mph /  17.7km/h 86% 0in /  0.0mm 151 W/m2
13:33 37.4 °F /  3 °C 33.6 °F /  0.9 °C 29.9in /  1010.8hPa WNW 8.9mph /  14.3km/h 12mph /  19.3km/h 86% 0in /  0.0mm 132 W/m2
13:38 37.6 °F /  3.1 °C 33.8 °F /  1 °C 29.9in /  1010.8hPa NW 10.1mph /  16.3km/h 11mph /  17.7km/h 86% 0in /  0.0mm 111 W/m2
13:43 37.6 °F /  3.1 °C 33.8 °F /  1 °C 29.9in /  1010.8hPa WSW 4mph /  6.4km/h 12mph /  19.3km/h 86% 0in /  0.0mm 132 W/m2
13:48 37.6 °F /  3.1 °C 33.8 °F /  1 °C 29.9in /  1010.8hPa WNW 6.9mph /  11.1km/h 11mph /  17.7km/h 86% 0in /  0.0mm 132 W/m2
13:53 37.6 °F /  3.1 °C 33.4 °F /  0.8 °C 29.9in /  1010.8hPa WNW 6.9mph /  11.1km/h 13mph /  20.9km/h 85% 0in /  0.0mm 127 W/m2
13:58 37.6 °F /  3.1 °C 33.4 °F /  0.8 °C 29.9in /  1010.8hPa West 8.1mph /  13km/h 15mph /  24.1km/h 85% 0in /  0.0mm 104 W/m2
14:08 37.6 °F /  3.1 °C 33.4 °F /  0.8 °C 29.9in /  1010.8hPa WSW 15mph /  24.1km/h 15mph /  24.1km/h 85% 0in /  0.0mm 88 W/m2
14:13 37.6 °F /  3.1 °C 33.4 °F /  0.8 °C 29.9in /  1010.8hPa WSW 8.9mph /  14.3km/h 11mph /  17.7km/h 85% 0in /  0.0mm 69 W/m2
14:18 37.6 °F /  3.1 °C 33.4 °F /  0.8 °C 29.9in /  1010.8hPa WSW 15mph /  24.1km/h 15mph /  24.1km/h 85% 0in /  0.0mm 49 W/m2
14:23 37.6 °F /  3.1 °C 33.4 °F /  0.8 °C 29.9in /  1010.8hPa WNW 4mph /  6.4km/h 10mph /  16.1km/h 85% 0in /  0.0mm 53 W/m2
14:28 37.8 °F /  3.2 °C 33.6 °F /  0.9 °C 29.9in /  1010.8hPa NW 4.9mph /  7.9km/h 7mph /  11.3km/h 85% 0in /  0.0mm 63 W/m2
14:33 37.8 °F /  3.2 °C 34 °F /  1.1 °C 29.9in /  1010.8hPa West 4mph /  6.4km/h 9mph /  14.5km/h 86% 0in /  0.0mm 70 W/m2
14:38 37.8 °F /  3.2 °C 33.6 °F /  0.9 °C 29.9in /  1010.8hPa West 6mph /  9.7km/h 12mph /  19.3km/h 85% 0in /  0.0mm 69 W/m2
14:43 37.9 °F /  3.3 °C 33.8 °F /  1 °C 29.9in /  1010.8hPa WNW 8.9mph /  14.3km/h 10mph /  16.1km/h 85% 0in /  0.0mm 74 W/m2
14:48 37.9 °F /  3.3 °C 33.8 °F /  1 °C 29.9in /  1011.2hPa West 6mph /  9.7km/h 12mph /  19.3km/h 85% 0in /  0.0mm 65 W/m2
14:53 37.9 °F /  3.3 °C 34.2 °F /  1.2 °C 29.9in /  1011.2hPa West 8.1mph /  13km/h 11mph /  17.7km/h 86% 0in /  0.0mm 62 W/m2
14:58 37.8 °F /  3.2 °C 34 °F /  1.1 °C 29.9in /  1011.2hPa West 8.9mph /  14.3km/h 10mph /  16.1km/h 86% 0in /  0.0mm 53 W/m2
15:03 37.8 °F /  3.2 °C 34 °F /  1.1 °C 29.9in /  1011.2hPa West 6mph /  9.7km/h 9mph /  14.5km/h 86% 0in /  0.0mm 47 W/m2
15:08 37.8 °F /  3.2 °C 34 °F /  1.1 °C 29.9in /  1011.5hPa WNW 6.9mph /  11.1km/h 12mph /  19.3km/h 86% 0in /  0.0mm 40 W/m2
15:13 37.6 °F /  3.1 °C 33.8 °F /  1 °C 29.9in /  1011.5hPa WSW 8.1mph /  13km/h 14mph /  22.5km/h 86% 0in /  0.0mm 47 W/m2
15:18 37.6 °F /  3.1 °C 33.8 °F /  1 °C 29.9in /  1011.5hPa West 4mph /  6.4km/h 10mph /  16.1km/h 86% 0in /  0.0mm 33 W/m2
15:23 37.6 °F /  3.1 °C 33.8 °F /  1 °C 29.9in /  1011.9hPa NW 8.1mph /  13km/h 11mph /  17.7km/h 86% 0in /  0.0mm 33 W/m2
15:28 37.6 °F /  3.1 °C 33.8 °F /  1 °C 29.9in /  1011.9hPa WNW 4mph /  6.4km/h 11mph /  17.7km/h 86% 0in /  0.0mm 44 W/m2
15:33 37.6 °F /  3.1 °C 33.8 °F /  1 °C 29.9in /  1011.9hPa West 6.9mph /  11.1km/h 11mph /  17.7km/h 86% 0in /  0.0mm 39 W/m2
15:38 37.4 °F /  3 °C 33.8 °F /  1 °C 29.9in /  1011.9hPa NW 8.9mph /  14.3km/h 9mph /  14.5km/h 87% 0in /  0.0mm 39 W/m2
15:43 37.4 °F /  3 °C 33.8 °F /  1 °C 29.9in /  1011.9hPa West 6mph /  9.7km/h 11mph /  17.7km/h 87% 0in /  0.0mm 28 W/m2
15:48 37.2 °F /  2.9 °C 33.8 °F /  1 °C 29.9in /  1011.9hPa West 2.9mph /  4.7km/h 8mph /  12.9km/h 87% 0in /  0.0mm 32 W/m2
16:03 37 °F /  2.8 °C 33.6 °F /  0.9 °C 29.9in /  1012.2hPa WNW 4mph /  6.4km/h 8mph /  12.9km/h 87% 0in /  0.0mm 33 W/m2
16:08 37 °F /  2.8 °C 33.6 °F /  0.9 °C 29.9in /  1012.2hPa WNW 8.1mph /  13km/h 15mph /  24.1km/h 87% 0in /  0.0mm 25 W/m2
16:13 37.2 °F /  2.9 °C 33.8 °F /  1 °C 29.9in /  1012.5hPa WSW 6.9mph /  11.1km/h 10mph /  16.1km/h 87% 0in /  0.0mm 19 W/m2
16:18 37 °F /  2.8 °C 33.6 °F /  0.9 °C 29.9in /  1012.5hPa West 8.9mph /  14.3km/h 11mph /  17.7km/h 87% 0in /  0.0mm 11 W/m2
16:23 37 °F /  2.8 °C 33.6 °F /  0.9 °C 29.9in /  1012.5hPa West 6.9mph /  11.1km/h 8mph /  12.9km/h 87% 0in /  0.0mm 7 W/m2
16:28 37 °F /  2.8 °C 33.6 °F /  0.9 °C 29.9in /  1012.5hPa WNW 4.9mph /  7.9km/h 10mph /  16.1km/h 87% 0in /  0.0mm 5 W/m2
16:33 37 °F /  2.8 °C 33.6 °F /  0.9 °C 29.9in /  1012.5hPa West 6mph /  9.7km/h 8mph /  12.9km/h 87% 0in /  0.0mm 5 W/m2
16:38 37 °F /  2.8 °C 33.6 °F /  0.9 °C 29.9in /  1012.5hPa WSW 2mph /  3.2km/h 8mph /  12.9km/h 87% 0in /  0.0mm 5 W/m2
16:48 36.9 °F /  2.7 °C 33.4 °F /  0.8 °C 29.9in /  1012.5hPa WSW 4mph /  6.4km/h 9mph /  14.5km/h 87% 0in /  0.0mm 0 W/m2
16:53 36.9 °F /  2.7 °C 33.4 °F /  0.8 °C 29.9in /  1012.9hPa WNW 6.9mph /  11.1km/h 12mph /  19.3km/h 87% 0in /  0.0mm 0 W/m2
16:58 36.7 °F /  2.6 °C 33.4 °F /  0.8 °C 29.9in /  1012.9hPa West 2.9mph /  4.7km/h 13mph /  20.9km/h 88% 0in /  0.0mm 0 W/m2
17:03 36.7 °F /  2.6 °C 33.4 °F /  0.8 °C 29.9in /  1012.9hPa WNW 4mph /  6.4km/h 13mph /  20.9km/h 88% 0in /  0.0mm 0 W/m2
17:08 36.5 °F /  2.5 °C 33.3 °F /  0.7 °C 29.9in /  1012.9hPa WNW 2mph /  3.2km/h 7mph /  11.3km/h 88% 0in /  0.0mm 0 W/m2
17:13 36.5 °F /  2.5 °C 33.3 °F /  0.7 °C 29.9in /  1012.9hPa WNW 2mph /  3.2km/h 13mph /  20.9km/h 88% 0in /  0.0mm 0 W/m2
17:18 36.3 °F /  2.4 °C 33.1 °F /  0.6 °C 29.9in /  1012.9hPa WNW 6.9mph /  11.1km/h 10mph /  16.1km/h 88% 0in /  0.0mm 0 W/m2
17:23 36.3 °F /  2.4 °C 33.1 °F /  0.6 °C 29.9in /  1012.9hPa NNW 2.9mph /  4.7km/h 11mph /  17.7km/h 88% 0in /  0.0mm 0 W/m2
17:33 36.3 °F /  2.4 °C 33.4 °F /  0.8 °C 29.9in /  1012.9hPa West 10.1mph /  16.3km/h 11mph /  17.7km/h 89% 0in /  0.0mm 0 W/m2
17:38 36.3 °F /  2.4 °C 33.4 °F /  0.8 °C 29.9in /  1012.9hPa WSW 6.9mph /  11.1km/h 12mph /  19.3km/h 89% 0in /  0.0mm 0 W/m2
17:43 36.3 °F /  2.4 °C 33.4 °F /  0.8 °C 29.9in /  1013.2hPa WNW 4.9mph /  7.9km/h 8mph /  12.9km/h 89% 0in /  0.0mm 0 W/m2
17:48 36.3 °F /  2.4 °C 33.4 °F /  0.8 °C 29.9in /  1013.2hPa West 8.1mph /  13km/h 9mph /  14.5km/h 89% 0in /  0.0mm 0 W/m2
17:53 36.3 °F /  2.4 °C 33.4 °F /  0.8 °C 29.9in /  1013.5hPa WNW 8.9mph /  14.3km/h 10mph /  16.1km/h 89% 0in /  0.0mm 0 W/m2
17:58 36.3 °F /  2.4 °C 33.6 °F /  0.9 °C 29.9in /  1013.5hPa West 8.1mph /  13km/h 15mph /  24.1km/h 90% 0in /  0.0mm 0 W/m2
18:03 36.5 °F /  2.5 °C 33.8 °F /  1 °C 29.9in /  1013.5hPa West 6.9mph /  11.1km/h 11mph /  17.7km/h 90% 0in /  0.0mm 0 W/m2
18:08 36.5 °F /  2.5 °C 33.8 °F /  1 °C 29.9in /  1013.5hPa West 6.9mph /  11.1km/h 15mph /  24.1km/h 90% 0in /  0.0mm 0 W/m2
18:13 36.7 °F /  2.6 °C 34 °F /  1.1 °C 29.9in /  1013.5hPa WSW 4.9mph /  7.9km/h 11mph /  17.7km/h 90% 0in /  0.0mm 0 W/m2
18:19 36.7 °F /  2.6 °C 34 °F /  1.1 °C 29.9in /  1013.5hPa WSW 4.9mph /  7.9km/h 14mph /  22.5km/h 90% 0in /  0.0mm 0 W/m2
18:24 36.7 °F /  2.6 °C 34 °F /  1.1 °C 29.9in /  1013.5hPa WSW 4mph /  6.4km/h 9mph /  14.5km/h 90% 0in /  0.0mm 0 W/m2
18:29 36.9 °F /  2.7 °C 34.2 °F /  1.2 °C 29.9in /  1013.9hPa SW 8.1mph /  13km/h 11mph /  17.7km/h 90% 0in /  0.0mm 0 W/m2
18:34 36.9 °F /  2.7 °C 34.2 °F /  1.2 °C 29.9in /  1013.9hPa West 8.1mph /  13km/h 12mph /  19.3km/h 90% 0in /  0.0mm 0 W/m2
18:39 36.9 °F /  2.7 °C 34.2 °F /  1.2 °C 29.9in /  1013.9hPa West 2mph /  3.2km/h 9mph /  14.5km/h 90% 0in /  0.0mm 0 W/m2
18:44 36.9 °F /  2.7 °C 34.2 °F /  1.2 °C 30in /  1014.2hPa WNW 8.9mph /  14.3km/h 15mph /  24.1km/h 90% 0in /  0.0mm 0 W/m2
18:49 37 °F /  2.8 °C 34.3 °F /  1.3 °C 30in /  1014.2hPa West 8.1mph /  13km/h 9mph /  14.5km/h 90% 0in /  0.0mm 0 W/m2
18:54 37 °F /  2.8 °C 34.3 °F /  1.3 °C 30in /  1014.2hPa SW 2.9mph /  4.7km/h 11mph /  17.7km/h 90% 0in /  0.0mm 0 W/m2
18:59 37 °F /  2.8 °C 34.3 °F /  1.3 °C 30in /  1014.6hPa West 4mph /  6.4km/h 11mph /  17.7km/h 90% 0in /  0.0mm 0 W/m2
19:04 37 °F /  2.8 °C 34.3 °F /  1.3 °C 30in /  1014.6hPa WNW 4mph /  6.4km/h 16mph /  25.7km/h 90% 0in /  0.0mm 0 W/m2
19:09 37 °F /  2.8 °C 34.3 °F /  1.3 °C 30in /  1014.6hPa West 8.1mph /  13km/h 10mph /  16.1km/h 90% 0in /  0.0mm 0 W/m2
19:14 37 °F /  2.8 °C 34.3 °F /  1.3 °C 30in /  1014.6hPa WNW 4.9mph /  7.9km/h 9mph /  14.5km/h 90% 0in /  0.0mm 0 W/m2
19:19 37 °F /  2.8 °C 34.3 °F /  1.3 °C 30in /  1014.6hPa WNW 6mph /  9.7km/h 12mph /  19.3km/h 90% 0in /  0.0mm 0 W/m2
19:24 37.2 °F /  2.9 °C 34.5 °F /  1.4 °C 30in /  1014.6hPa West 4mph /  6.4km/h 14mph /  22.5km/h 90% 0in /  0.0mm 0 W/m2
19:29 37.2 °F /  2.9 °C 34.5 °F /  1.4 °C 30in /  1014.6hPa West 4mph /  6.4km/h 16mph /  25.7km/h 90% 0in /  0.0mm 0 W/m2
19:34 37.2 °F /  2.9 °C 34.3 °F /  1.3 °C 30in /  1014.6hPa WSW 8.9mph /  14.3km/h 11mph /  17.7km/h 89% 0in /  0.0mm 0 W/m2
19:39 37 °F /  2.8 °C 34.3 °F /  1.3 °C 30in /  1014.6hPa WNW 8.1mph /  13km/h 10mph /  16.1km/h 90% 0in /  0.0mm 0 W/m2
19:44 37 °F /  2.8 °C 34.3 °F /  1.3 °C 30in /  1014.6hPa West 10.1mph /  16.3km/h 16mph /  25.7km/h 90% 0in /  0.0mm 0 W/m2
19:49 36.9 °F /  2.7 °C 34.2 °F /  1.2 °C 30in /  1014.9hPa WNW 4.9mph /  7.9km/h 9mph /  14.5km/h 90% 0in /  0.0mm 0 W/m2
19:54 36.9 °F /  2.7 °C 34.2 °F /  1.2 °C 30in /  1014.9hPa West 4mph /  6.4km/h 16mph /  25.7km/h 90% 0in /  0.0mm 0 W/m2
19:59 36.9 °F /  2.7 °C 34.2 °F /  1.2 °C 30in /  1014.9hPa WNW 8.1mph /  13km/h 11mph /  17.7km/h 90% 0in /  0.0mm 0 W/m2
20:04 36.9 °F /  2.7 °C 34.2 °F /  1.2 °C 30in /  1014.9hPa WNW 4mph /  6.4km/h 11mph /  17.7km/h 90% 0in /  0.0mm 0 W/m2
20:09 36.7 °F /  2.6 °C 34 °F /  1.1 °C 30in /  1015.2hPa WNW 8.1mph /  13km/h 12mph /  19.3km/h 90% 0in /  0.0mm 0 W/m2
20:14 36.7 °F /  2.6 °C 34 °F /  1.1 °C 30in /  1015.2hPa West 4mph /  6.4km/h 10mph /  16.1km/h 90% 0in /  0.0mm 0 W/m2
20:19 36.7 °F /  2.6 °C 34 °F /  1.1 °C 30in /  1015.2hPa WNW 8.1mph /  13km/h 12mph /  19.3km/h 90% 0in /  0.0mm 0 W/m2
20:24 36.7 °F /  2.6 °C 34 °F /  1.1 °C 30in /  1015.2hPa West 6.9mph /  11.1km/h 10mph /  16.1km/h 90% 0in /  0.0mm 0 W/m2
20:29 36.7 °F /  2.6 °C 34 °F /  1.1 °C 30in /  1015.2hPa SSW 8.1mph /  13km/h 11mph /  17.7km/h 90% 0in /  0.0mm 0 W/m2
20:34 36.5 °F /  2.5 °C 34.2 °F /  1.2 °C 30in /  1015.2hPa WNW 4.9mph /  7.9km/h 9mph /  14.5km/h 91% 0in /  0.0mm 0 W/m2
20:39 36.5 °F /  2.5 °C 34.2 °F /  1.2 °C 30in /  1015.2hPa WNW 6.9mph /  11.1km/h 11mph /  17.7km/h 91% 0in /  0.0mm 0 W/m2
20:44 36.5 °F /  2.5 °C 34.2 °F /  1.2 °C 30in /  1015.6hPa WNW 6.9mph /  11.1km/h 11mph /  17.7km/h 91% 0in /  0.0mm 0 W/m2
20:49 36.5 °F /  2.5 °C 34.2 °F /  1.2 °C 30in /  1015.6hPa West 8.1mph /  13km/h 13mph /  20.9km/h 91% 0in /  0.0mm 0 W/m2
20:54 36.7 °F /  2.6 °C 34.3 °F /  1.3 °C 30in /  1015.2hPa West 8.9mph /  14.3km/h 12mph /  19.3km/h 91% 0in /  0.0mm 0 W/m2
20:59 36.7 °F /  2.6 °C 34.3 °F /  1.3 °C 30in /  1015.6hPa West 12.1mph /  19.5km/h 12mph /  19.3km/h 91% 0in /  0.0mm 0 W/m2
21:04 36.9 °F /  2.7 °C 34.5 °F /  1.4 °C 30in /  1015.6hPa West 6.9mph /  11.1km/h 10mph /  16.1km/h 91% 0in /  0.0mm 0 W/m2
21:09 36.9 °F /  2.7 °C 34.5 °F /  1.4 °C 30in /  1015.6hPa WSW 4mph /  6.4km/h 12mph /  19.3km/h 91% 0in /  0.0mm 0 W/m2
21:14 37 °F /  2.8 °C 34.7 °F /  1.5 °C 30in /  1015.6hPa West 6.9mph /  11.1km/h 12mph /  19.3km/h 91% 0in /  0.0mm 0 W/m2
21:24 37 °F /  2.8 °C 34.7 °F /  1.5 °C 30in /  1015.9hPa WSW 8.9mph /  14.3km/h 10mph /  16.1km/h 91% 0in /  0.0mm 0 W/m2
21:29 37 °F /  2.8 °C 34.7 °F /  1.5 °C 30in /  1015.9hPa WSW 8.9mph /  14.3km/h 13mph /  20.9km/h 91% 0in /  0.0mm 0 W/m2
21:34 37.2 °F /  2.9 °C 34.5 °F /  1.4 °C 30in /  1015.9hPa WSW 6.9mph /  11.1km/h 7mph /  11.3km/h 90% 0in /  0.0mm 0 W/m2
21:39 37.2 °F /  2.9 °C 34.5 °F /  1.4 °C 30in /  1015.9hPa West 2mph /  3.2km/h 13mph /  20.9km/h 90% 0in /  0.0mm 0 W/m2
21:44 37.2 °F /  2.9 °C 34.5 °F /  1.4 °C 30in /  1016.3hPa West 4mph /  6.4km/h 10mph /  16.1km/h 90% 0in /  0.0mm 0 W/m2
21:49 37.2 °F /  2.9 °C 34.5 °F /  1.4 °C 30in /  1016.3hPa WNW 4mph /  6.4km/h 7mph /  11.3km/h 90% 0in /  0.0mm 0 W/m2
21:54 37.2 °F /  2.9 °C 34.5 °F /  1.4 °C 30in /  1016.3hPa WSW 4mph /  6.4km/h 10mph /  16.1km/h 90% 0in /  0.0mm 0 W/m2
22:04 37.2 °F /  2.9 °C 34.5 °F /  1.4 °C 30in /  1016.3hPa WSW 2mph /  3.2km/h 14mph /  22.5km/h 90% 0in /  0.0mm 0 W/m2
22:09 37.2 °F /  2.9 °C 34.5 °F /  1.4 °C 30in /  1016.3hPa WSW 8.9mph /  14.3km/h 10mph /  16.1km/h 90% 0in /  0.0mm 0 W/m2
22:14 37.2 °F /  2.9 °C 34.5 °F /  1.4 °C 30in /  1016.3hPa West 4mph /  6.4km/h 12mph /  19.3km/h 90% 0in /  0.0mm 0 W/m2
22:19 37.2 °F /  2.9 °C 34.5 °F /  1.4 °C 30in /  1016.3hPa West 2.9mph /  4.7km/h 8mph /  12.9km/h 90% 0in /  0.0mm 0 W/m2
22:24 37.2 °F /  2.9 °C 34.3 °F /  1.3 °C 30in /  1016.3hPa West 8.1mph /  13km/h 10mph /  16.1km/h 89% 0in /  0.0mm 0 W/m2
22:29 37.4 °F /  3 °C 34.5 °F /  1.4 °C 30in /  1016.3hPa WNW 2.9mph /  4.7km/h 8mph /  12.9km/h 89% 0in /  0.0mm 0 W/m2
22:34 37.4 °F /  3 °C 34.5 °F /  1.4 °C 30in /  1016.3hPa West 8.1mph /  13km/h 9mph /  14.5km/h 89% 0in /  0.0mm 0 W/m2
22:39 37.4 °F /  3 °C 34.5 °F /  1.4 °C 30in /  1016.3hPa West 6mph /  9.7km/h 6mph /  9.7km/h 89% 0in /  0.0mm 0 W/m2
22:44 37.6 °F /  3.1 °C 34.7 °F /  1.5 °C 30in /  1016.3hPa West 6mph /  9.7km/h 9mph /  14.5km/h 89% 0in /  0.0mm 0 W/m2
22:49 37.4 °F /  3 °C 34.5 °F /  1.4 °C 30in /  1016.3hPa West 2.9mph /  4.7km/h 5mph /  8km/h 89% 0in /  0.0mm 0 W/m2
22:54 37.4 °F /  3 °C 34.5 °F /  1.4 °C 30in /  1016.3hPa West 4mph /  6.4km/h 12mph /  19.3km/h 89% 0in /  0.0mm 0 W/m2
22:59 37.4 °F /  3 °C 34.5 °F /  1.4 °C 30in /  1016.3hPa West 6mph /  9.7km/h 7mph /  11.3km/h 89% 0in /  0.0mm 0 W/m2
23:04 37.4 °F /  3 °C 34.5 °F /  1.4 °C 30in /  1016.3hPa West 0.9mph /  1.4km/h 9mph /  14.5km/h 89% 0in /  0.0mm 0 W/m2
23:09 37.4 °F /  3 °C 34.5 °F /  1.4 °C 30in /  1016.3hPa WSW 4mph /  6.4km/h 11mph /  17.7km/h 89% 0in /  0.0mm 0 W/m2
23:14 37.2 °F /  2.9 °C 34.5 °F /  1.4 °C 30in /  1016.3hPa West 2.9mph /  4.7km/h 12mph /  19.3km/h 90% 0in /  0.0mm 0 W/m2
23:19 37.2 °F /  2.9 °C 34.5 °F /  1.4 °C 30in /  1016.3hPa WSW 2.9mph /  4.7km/h 12mph /  19.3km/h 90% 0in /  0.0mm 0 W/m2
23:24 37.2 °F /  2.9 °C 34.5 °F /  1.4 °C 30in /  1016.3hPa WNW 6.9mph /  11.1km/h 9mph /  14.5km/h 90% 0in /  0.0mm 0 W/m2
23:29 37 °F /  2.8 °C 34.3 °F /  1.3 °C 30in /  1016.6hPa West 4mph /  6.4km/h 12mph /  19.3km/h 90% 0in /  0.0mm 0 W/m2
23:34 37 °F /  2.8 °C 34.3 °F /  1.3 °C 30in /  1016.6hPa WNW 2.9mph /  4.7km/h 7mph /  11.3km/h 90% 0in /  0.0mm 0 W/m2
23:39 37 °F /  2.8 °C 34.3 °F /  1.3 °C 30in /  1016.6hPa NW 2.9mph /  4.7km/h 9mph /  14.5km/h 90% 0in /  0.0mm 0 W/m2
23:44 37 °F /  2.8 °C 34.7 °F /  1.5 °C 30in /  1016.6hPa WNW 2.9mph /  4.7km/h 12mph /  19.3km/h 91% 0in /  0.0mm 0 W/m2
23:49 36.9 °F /  2.7 °C 34.2 °F /  1.2 °C 30in /  1016.6hPa WSW 2.9mph /  4.7km/h 4mph /  6.4km/h 90% 0in /  0.0mm 0 W/m2
23:54 36.9 °F /  2.7 °C 34.5 °F /  1.4 °C 30in /  1016.6hPa West 2.9mph /  4.7km/h 10mph /  16.1km/h 91% 0in /  0.0mm 0 W/m2
23:59 36.9 °F /  2.7 °C 34.5 °F /  1.4 °C 30in /  1016.6hPa WNW 4mph /  6.4km/h 5mph /  8km/h 91% 0in /  0.0mm 0 W/m2
Juneau County Weather
Compliments of Weather Underground - 4 mb